sensor_id;sensor_type;location;lat;lon;timestamp;temperature;humidity
16513;DHT22;8369;48.030;11.598;2023-06-19T00:00:28;19.80;92.40
16513;DHT22;8369;48.030;11.598;2023-06-19T00:02:55;19.80;92.60
16513;DHT22;8369;48.030;11.598;2023-06-19T00:05:22;19.80;92.60
16513;DHT22;8369;48.030;11.598;2023-06-19T00:07:51;19.80;92.70
16513;DHT22;8369;48.030;11.598;2023-06-19T00:10:17;19.80;92.70
16513;DHT22;8369;48.030;11.598;2023-06-19T00:12:43;19.80;92.90
16513;DHT22;8369;48.030;11.598;2023-06-19T00:15:11;19.70;93.10
16513;DHT22;8369;48.030;11.598;2023-06-19T00:17:38;19.70;92.90
16513;DHT22;8369;48.030;11.598;2023-06-19T00:20:05;19.70;93.00
16513;DHT22;8369;48.030;11.598;2023-06-19T00:22:33;19.70;93.10
16513;DHT22;8369;48.030;11.598;2023-06-19T00:25:00;19.70;93.10
16513;DHT22;8369;48.030;11.598;2023-06-19T00:27:26;19.80;93.20
16513;DHT22;8369;48.030;11.598;2023-06-19T00:29:52;19.80;93.20
16513;DHT22;8369;48.030;11.598;2023-06-19T00:32:19;19.80;93.70
16513;DHT22;8369;48.030;11.598;2023-06-19T00:34:49;19.80;93.90
16513;DHT22;8369;48.030;11.598;2023-06-19T00:37:16;19.80;93.70
16513;DHT22;8369;48.030;11.598;2023-06-19T00:39:43;19.80;93.40
16513;DHT22;8369;48.030;11.598;2023-06-19T00:42:10;19.80;93.50
16513;DHT22;8369;48.030;11.598;2023-06-19T00:44:36;19.80;93.70
16513;DHT22;8369;48.030;11.598;2023-06-19T00:47:03;19.80;94.20
16513;DHT22;8369;48.030;11.598;2023-06-19T00:49:31;19.80;94.10
16513;DHT22;8369;48.030;11.598;2023-06-19T00:51:58;19.80;94.40
16513;DHT22;8369;48.030;11.598;2023-06-19T00:54:25;19.80;94.10
16513;DHT22;8369;48.030;11.598;2023-06-19T00:56:52;19.80;94.00
16513;DHT22;8369;48.030;11.598;2023-06-19T00:59:20;19.80;93.80
16513;DHT22;8369;48.030;11.598;2023-06-19T01:01:46;19.80;94.00
16513;DHT22;8369;48.030;11.598;2023-06-19T01:04:13;19.80;94.30
16513;DHT22;8369;48.030;11.598;2023-06-19T01:07:00;19.80;94.10
16513;DHT22;8369;48.030;11.598;2023-06-19T01:09:33;19.80;94.20
16513;DHT22;8369;48.030;11.598;2023-06-19T01:12:08;19.80;94.00
16513;DHT22;8369;48.030;11.598;2023-06-19T01:14:58;19.80;94.00
16513;DHT22;8369;48.030;11.598;2023-06-19T01:17:26;19.90;94.40
16513;DHT22;8369;48.030;11.598;2023-06-19T01:19:55;19.80;94.20
16513;DHT22;8369;48.030;11.598;2023-06-19T01:22:28;19.90;94.30
16513;DHT22;8369;48.030;11.598;2023-06-19T01:24:55;19.90;94.30
16513;DHT22;8369;48.030;11.598;2023-06-19T01:27:25;19.90;94.20
16513;DHT22;8369;48.030;11.598;2023-06-19T01:29:52;19.90;94.20
16513;DHT22;8369;48.030;11.598;2023-06-19T01:32:34;19.90;94.50
16513;DHT22;8369;48.030;11.598;2023-06-19T01:35:04;19.90;94.10
16513;DHT22;8369;48.030;11.598;2023-06-19T01:37:31;19.90;94.10
16513;DHT22;8369;48.030;11.598;2023-06-19T01:39:59;19.90;94.30
16513;DHT22;8369;48.030;11.598;2023-06-19T01:42:27;20.00;94.00
16513;DHT22;8369;48.030;11.598;2023-06-19T01:44:54;20.00;94.20
16513;DHT22;8369;48.030;11.598;2023-06-19T01:47:20;20.00;94.00
16513;DHT22;8369;48.030;11.598;2023-06-19T01:49:47;19.90;93.90
16513;DHT22;8369;48.030;11.598;2023-06-19T01:52:14;19.90;94.30
16513;DHT22;8369;48.030;11.598;2023-06-19T01:54:40;19.90;94.40
16513;DHT22;8369;48.030;11.598;2023-06-19T01:57:06;19.90;94.40
16513;DHT22;8369;48.030;11.598;2023-06-19T01:59:32;19.90;94.30
16513;DHT22;8369;48.030;11.598;2023-06-19T02:01:58;19.90;94.10
16513;DHT22;8369;48.030;11.598;2023-06-19T02:04:23;20.00;94.40
16513;DHT22;8369;48.030;11.598;2023-06-19T02:06:49;20.00;94.70
16513;DHT22;8369;48.030;11.598;2023-06-19T02:09:16;20.00;94.80
16513;DHT22;8369;48.030;11.598;2023-06-19T02:11:42;20.00;94.80
16513;DHT22;8369;48.030;11.598;2023-06-19T02:14:09;20.00;95.00
16513;DHT22;8369;48.030;11.598;2023-06-19T02:16:37;20.00;94.90
16513;DHT22;8369;48.030;11.598;2023-06-19T02:19:03;20.00;95.30
16513;DHT22;8369;48.030;11.598;2023-06-19T02:21:32;20.00;95.10
16513;DHT22;8369;48.030;11.598;2023-06-19T02:23:57;20.00;95.10
16513;DHT22;8369;48.030;11.598;2023-06-19T02:26:23;20.00;95.00
16513;DHT22;8369;48.030;11.598;2023-06-19T02:28:49;20.00;95.40
16513;DHT22;8369;48.030;11.598;2023-06-19T02:31:16;20.00;95.70
16513;DHT22;8369;48.030;11.598;2023-06-19T02:33:45;20.00;95.70
16513;DHT22;8369;48.030;11.598;2023-06-19T02:36:12;20.00;95.70
16513;DHT22;8369;48.030;11.598;2023-06-19T02:38:40;19.90;96.00
16513;DHT22;8369;48.030;11.598;2023-06-19T02:41:07;19.90;96.30
16513;DHT22;8369;48.030;11.598;2023-06-19T02:43:34;19.90;95.80
16513;DHT22;8369;48.030;11.598;2023-06-19T02:46:00;20.00;95.80
16513;DHT22;8369;48.030;11.598;2023-06-19T02:48:27;20.00;95.90
16513;DHT22;8369;48.030;11.598;2023-06-19T02:50:57;20.00;96.40
16513;DHT22;8369;48.030;11.598;2023-06-19T02:53:23;20.00;96.90
16513;DHT22;8369;48.030;11.598;2023-06-19T02:55:50;20.00;96.60
16513;DHT22;8369;48.030;11.598;2023-06-19T02:58:17;20.00;96.70
16513;DHT22;8369;48.030;11.598;2023-06-19T03:00:45;20.00;96.80
16513;DHT22;8369;48.030;11.598;2023-06-19T03:03:12;19.90;97.00
16513;DHT22;8369;48.030;11.598;2023-06-19T03:05:38;19.90;97.00
16513;DHT22;8369;48.030;11.598;2023-06-19T03:08:05;19.90;97.20
16513;DHT22;8369;48.030;11.598;2023-06-19T03:10:33;19.90;97.20
16513;DHT22;8369;48.030;11.598;2023-06-19T03:13:00;19.90;97.40
16513;DHT22;8369;48.030;11.598;2023-06-19T03:15:29;19.90;97.40
16513;DHT22;8369;48.030;11.598;2023-06-19T03:17:56;19.90;97.50
16513;DHT22;8369;48.030;11.598;2023-06-19T03:20:22;19.90;97.30
16513;DHT22;8369;48.030;11.598;2023-06-19T03:22:50;20.00;96.90
16513;DHT22;8369;48.030;11.598;2023-06-19T03:25:16;19.90;97.50
16513;DHT22;8369;48.030;11.598;2023-06-19T03:27:46;19.90;97.40
16513;DHT22;8369;48.030;11.598;2023-06-19T03:30:16;20.00;97.30
16513;DHT22;8369;48.030;11.598;2023-06-19T03:32:44;19.90;97.60
16513;DHT22;8369;48.030;11.598;2023-06-19T03:35:10;19.90;97.50
16513;DHT22;8369;48.030;11.598;2023-06-19T03:37:36;19.90;97.40
16513;DHT22;8369;48.030;11.598;2023-06-19T03:40:02;20.00;97.30
16513;DHT22;8369;48.030;11.598;2023-06-19T03:42:31;19.90;97.40
16513;DHT22;8369;48.030;11.598;2023-06-19T03:44:58;20.00;97.50
16513;DHT22;8369;48.030;11.598;2023-06-19T03:47:24;20.00;97.70
16513;DHT22;8369;48.030;11.598;2023-06-19T03:49:51;20.00;97.80
16513;DHT22;8369;48.030;11.598;2023-06-19T03:52:17;20.00;97.90
16513;DHT22;8369;48.030;11.598;2023-06-19T03:54:43;20.00;97.90
16513;DHT22;8369;48.030;11.598;2023-06-19T03:57:09;20.00;97.70
16513;DHT22;8369;48.030;11.598;2023-06-19T03:59:35;20.00;97.70
16513;DHT22;8369;48.030;11.598;2023-06-19T04:02:00;20.00;97.10
16513;DHT22;8369;48.030;11.598;2023-06-19T04:04:26;20.00;97.10
16513;DHT22;8369;48.030;11.598;2023-06-19T04:06:52;20.00;96.20
16513;DHT22;8369;48.030;11.598;2023-06-19T04:09:18;20.00;94.80
16513;DHT22;8369;48.030;11.598;2023-06-19T04:11:44;20.00;94.60
16513;DHT22;8369;48.030;11.598;2023-06-19T04:14:11;20.10;94.30
16513;DHT22;8369;48.030;11.598;2023-06-19T04:16:37;20.10;93.50
16513;DHT22;8369;48.030;11.598;2023-06-19T04:19:03;20.20;93.40
16513;DHT22;8369;48.030;11.598;2023-06-19T04:21:29;20.20;93.60
16513;DHT22;8369;48.030;11.598;2023-06-19T04:23:58;20.20;93.80
16513;DHT22;8369;48.030;11.598;2023-06-19T04:26:24;20.20;94.10
16513;DHT22;8369;48.030;11.598;2023-06-19T04:28:53;20.30;94.10
16513;DHT22;8369;48.030;11.598;2023-06-19T04:31:31;20.30;94.20
16513;DHT22;8369;48.030;11.598;2023-06-19T04:33:57;20.30;93.90
16513;DHT22;8369;48.030;11.598;2023-06-19T04:36:23;20.30;93.80
16513;DHT22;8369;48.030;11.598;2023-06-19T04:38:50;20.30;93.80
16513;DHT22;8369;48.030;11.598;2023-06-19T04:41:18;20.30;93.70
16513;DHT22;8369;48.030;11.598;2023-06-19T04:43:44;20.30;93.90
16513;DHT22;8369;48.030;11.598;2023-06-19T04:46:10;20.30;94.30
16513;DHT22;8369;48.030;11.598;2023-06-19T04:48:35;20.40;94.80
16513;DHT22;8369;48.030;11.598;2023-06-19T04:51:08;20.40;94.20
16513;DHT22;8369;48.030;11.598;2023-06-19T04:53:35;20.40;93.80
16513;DHT22;8369;48.030;11.598;2023-06-19T04:56:00;20.40;93.20
16513;DHT22;8369;48.030;11.598;2023-06-19T04:58:26;20.50;92.60
16513;DHT22;8369;48.030;11.598;2023-06-19T05:00:52;20.50;91.80
16513;DHT22;8369;48.030;11.598;2023-06-19T05:03:20;20.50;91.20
16513;DHT22;8369;48.030;11.598;2023-06-19T05:05:47;20.60;89.80
16513;DHT22;8369;48.030;11.598;2023-06-19T05:08:13;20.60;89.10
16513;DHT22;8369;48.030;11.598;2023-06-19T05:10:39;20.70;87.90
16513;DHT22;8369;48.030;11.598;2023-06-19T05:13:05;20.70;87.90
16513;DHT22;8369;48.030;11.598;2023-06-19T05:15:30;20.70;87.70
16513;DHT22;8369;48.030;11.598;2023-06-19T05:17:56;20.80;87.40
16513;DHT22;8369;48.030;11.598;2023-06-19T05:20:25;20.80;86.50
16513;DHT22;8369;48.030;11.598;2023-06-19T05:22:50;20.80;86.80
16513;DHT22;8369;48.030;11.598;2023-06-19T05:25:16;20.90;86.60
16513;DHT22;8369;48.030;11.598;2023-06-19T05:27:42;20.90;86.80
16513;DHT22;8369;48.030;11.598;2023-06-19T05:30:08;20.90;86.30
16513;DHT22;8369;48.030;11.598;2023-06-19T05:32:34;21.00;86.00
16513;DHT22;8369;48.030;11.598;2023-06-19T05:35:00;21.00;85.30
16513;DHT22;8369;48.030;11.598;2023-06-19T05:37:26;21.00;84.80
16513;DHT22;8369;48.030;11.598;2023-06-19T05:39:53;21.10;84.20
16513;DHT22;8369;48.030;11.598;2023-06-19T05:42:19;21.10;83.70
16513;DHT22;8369;48.030;11.598;2023-06-19T05:44:47;21.10;83.70
16513;DHT22;8369;48.030;11.598;2023-06-19T05:47:13;21.10;84.10
16513;DHT22;8369;48.030;11.598;2023-06-19T05:49:39;21.20;85.30
16513;DHT22;8369;48.030;11.598;2023-06-19T05:52:06;21.20;86.00
16513;DHT22;8369;48.030;11.598;2023-06-19T05:54:35;21.20;87.20
16513;DHT22;8369;48.030;11.598;2023-06-19T05:57:01;21.30;87.40
16513;DHT22;8369;48.030;11.598;2023-06-19T05:59:27;21.30;87.90
16513;DHT22;8369;48.030;11.598;2023-06-19T06:01:53;21.30;88.30
16513;DHT22;8369;48.030;11.598;2023-06-19T06:04:21;21.40;88.00
16513;DHT22;8369;48.030;11.598;2023-06-19T06:06:47;21.40;88.20
16513;DHT22;8369;48.030;11.598;2023-06-19T06:09:15;21.40;88.20
16513;DHT22;8369;48.030;11.598;2023-06-19T06:11:42;21.50;88.30
16513;DHT22;8369;48.030;11.598;2023-06-19T06:14:07;21.50;88.80
16513;DHT22;8369;48.030;11.598;2023-06-19T06:16:33;21.60;88.30
16513;DHT22;8369;48.030;11.598;2023-06-19T06:18:59;21.70;88.00
16513;DHT22;8369;48.030;11.598;2023-06-19T06:21:27;21.70;88.00
16513;DHT22;8369;48.030;11.598;2023-06-19T06:23:53;21.80;87.90
16513;DHT22;8369;48.030;11.598;2023-06-19T06:26:21;21.90;87.90
16513;DHT22;8369;48.030;11.598;2023-06-19T06:28:47;21.90;88.00
16513;DHT22;8369;48.030;11.598;2023-06-19T06:31:14;22.00;88.00
16513;DHT22;8369;48.030;11.598;2023-06-19T06:33:43;22.10;87.90
16513;DHT22;8369;48.030;11.598;2023-06-19T06:36:09;22.10;87.40
16513;DHT22;8369;48.030;11.598;2023-06-19T06:38:35;22.10;87.20
16513;DHT22;8369;48.030;11.598;2023-06-19T06:41:01;22.20;87.20
16513;DHT22;8369;48.030;11.598;2023-06-19T06:43:27;22.20;88.80
16513;DHT22;8369;48.030;11.598;2023-06-19T06:45:53;22.20;89.40
16513;DHT22;8369;48.030;11.598;2023-06-19T06:48:21;22.20;89.40
16513;DHT22;8369;48.030;11.598;2023-06-19T06:50:46;22.30;89.70
16513;DHT22;8369;48.030;11.598;2023-06-19T06:53:12;22.30;89.70
16513;DHT22;8369;48.030;11.598;2023-06-19T06:55:38;22.30;89.20
16513;DHT22;8369;48.030;11.598;2023-06-19T06:58:04;22.40;88.90
16513;DHT22;8369;48.030;11.598;2023-06-19T07:00:30;22.40;88.80
16513;DHT22;8369;48.030;11.598;2023-06-19T07:02:56;22.50;88.90
16513;DHT22;8369;48.030;11.598;2023-06-19T07:05:22;22.50;89.10
16513;DHT22;8369;48.030;11.598;2023-06-19T07:07:48;22.60;88.80
16513;DHT22;8369;48.030;11.598;2023-06-19T07:10:13;22.70;88.50
16513;DHT22;8369;48.030;11.598;2023-06-19T07:12:52;22.70;88.20
16513;DHT22;8369;48.030;11.598;2023-06-19T07:15:18;22.80;88.00
16513;DHT22;8369;48.030;11.598;2023-06-19T07:17:46;22.90;87.70
16513;DHT22;8369;48.030;11.598;2023-06-19T07:20:13;23.00;87.60
16513;DHT22;8369;48.030;11.598;2023-06-19T07:22:39;23.10;87.40
16513;DHT22;8369;48.030;11.598;2023-06-19T07:25:05;23.20;86.90
16513;DHT22;8369;48.030;11.598;2023-06-19T07:27:31;23.30;85.90
16513;DHT22;8369;48.030;11.598;2023-06-19T07:29:59;23.40;85.70
16513;DHT22;8369;48.030;11.598;2023-06-19T07:32:25;23.50;85.40
16513;DHT22;8369;48.030;11.598;2023-06-19T07:35:03;23.50;84.80
16513;DHT22;8369;48.030;11.598;2023-06-19T07:37:28;23.60;84.80
16513;DHT22;8369;48.030;11.598;2023-06-19T07:39:54;23.60;85.10
16513;DHT22;8369;48.030;11.598;2023-06-19T07:42:21;23.60;85.40
16513;DHT22;8369;48.030;11.598;2023-06-19T07:44:46;23.70;86.00
16513;DHT22;8369;48.030;11.598;2023-06-19T07:47:15;23.80;85.40
16513;DHT22;8369;48.030;11.598;2023-06-19T07:49:41;23.80;84.40
16513;DHT22;8369;48.030;11.598;2023-06-19T07:52:08;23.90;84.70
16513;DHT22;8369;48.030;11.598;2023-06-19T07:54:35;24.00;84.10
16513;DHT22;8369;48.030;11.598;2023-06-19T07:57:01;24.10;82.50
16513;DHT22;8369;48.030;11.598;2023-06-19T07:59:27;24.20;81.30
16513;DHT22;8369;48.030;11.598;2023-06-19T08:01:54;24.40;80.50
16513;DHT22;8369;48.030;11.598;2023-06-19T08:04:22;24.60;79.40
16513;DHT22;8369;48.030;11.598;2023-06-19T08:06:48;24.70;76.80
16513;DHT22;8369;48.030;11.598;2023-06-19T08:09:15;24.90;76.50
16513;DHT22;8369;48.030;11.598;2023-06-19T08:11:43;25.10;75.60
16513;DHT22;8369;48.030;11.598;2023-06-19T08:14:09;25.20;75.50
16513;DHT22;8369;48.030;11.598;2023-06-19T08:16:34;25.40;75.20
16513;DHT22;8369;48.030;11.598;2023-06-19T08:19:01;25.60;72.90
16513;DHT22;8369;48.030;11.598;2023-06-19T08:21:27;25.60;71.80
16513;DHT22;8369;48.030;11.598;2023-06-19T08:23:56;25.70;71.80
16513;DHT22;8369;48.030;11.598;2023-06-19T08:26:22;25.70;71.50
16513;DHT22;8369;48.030;11.598;2023-06-19T08:28:48;25.70;72.30
16513;DHT22;8369;48.030;11.598;2023-06-19T08:31:14;25.80;71.10
16513;DHT22;8369;48.030;11.598;2023-06-19T08:33:42;26.00;71.10
16513;DHT22;8369;48.030;11.598;2023-06-19T08:36:08;26.10;70.70
16513;DHT22;8369;48.030;11.598;2023-06-19T08:38:34;26.20;70.70
16513;DHT22;8369;48.030;11.598;2023-06-19T08:41:00;26.30;70.40
16513;DHT22;8369;48.030;11.598;2023-06-19T08:43:25;26.50;70.60
16513;DHT22;8369;48.030;11.598;2023-06-19T08:46:09;26.70;69.80
16513;DHT22;8369;48.030;11.598;2023-06-19T08:48:37;26.80;68.60
16513;DHT22;8369;48.030;11.598;2023-06-19T08:51:04;26.80;69.20
16513;DHT22;8369;48.030;11.598;2023-06-19T08:53:35;26.90;68.20
16513;DHT22;8369;48.030;11.598;2023-06-19T08:56:03;27.00;67.70
16513;DHT22;8369;48.030;11.598;2023-06-19T08:58:29;27.10;67.40
16513;DHT22;8369;48.030;11.598;2023-06-19T09:00:58;27.10;67.40
16513;DHT22;8369;48.030;11.598;2023-06-19T09:03:24;27.20;66.50
16513;DHT22;8369;48.030;11.598;2023-06-19T09:05:50;27.30;64.50
16513;DHT22;8369;48.030;11.598;2023-06-19T09:08:20;27.30;64.70
16513;DHT22;8369;48.030;11.598;2023-06-19T09:13:28;27.40;65.70
16513;DHT22;8369;48.030;11.598;2023-06-19T09:16:07;27.50;65.30
16513;DHT22;8369;48.030;11.598;2023-06-19T09:18:47;27.60;65.60
16513;DHT22;8369;48.030;11.598;2023-06-19T09:21:20;27.80;65.40
16513;DHT22;8369;48.030;11.598;2023-06-19T09:23:53;27.90;65.10
16513;DHT22;8369;48.030;11.598;2023-06-19T09:26:18;28.00;65.10
16513;DHT22;8369;48.030;11.598;2023-06-19T09:28:45;28.10;65.30
16513;DHT22;8369;48.030;11.598;2023-06-19T09:31:12;28.10;64.80
16513;DHT22;8369;48.030;11.598;2023-06-19T09:33:41;28.10;64.70
16513;DHT22;8369;48.030;11.598;2023-06-19T09:36:07;28.10;64.80
16513;DHT22;8369;48.030;11.598;2023-06-19T09:38:37;28.10;64.20
16513;DHT22;8369;48.030;11.598;2023-06-19T09:41:05;28.00;64.70
16513;DHT22;8369;48.030;11.598;2023-06-19T09:43:38;28.00;64.80
16513;DHT22;8369;48.030;11.598;2023-06-19T09:46:06;28.00;64.50
16513;DHT22;8369;48.030;11.598;2023-06-19T09:48:34;28.00;63.90
16513;DHT22;8369;48.030;11.598;2023-06-19T09:51:22;28.00;64.70
16513;DHT22;8369;48.030;11.598;2023-06-19T09:53:50;28.00;64.70
16513;DHT22;8369;48.030;11.598;2023-06-19T09:56:19;28.10;64.80
16513;DHT22;8369;48.030;11.598;2023-06-19T09:58:56;28.10;65.10
16513;DHT22;8369;48.030;11.598;2023-06-19T10:01:27;28.10;65.60
16513;DHT22;8369;48.030;11.598;2023-06-19T10:04:03;28.10;65.60
16513;DHT22;8369;48.030;11.598;2023-06-19T10:06:49;27.90;66.00
16513;DHT22;8369;48.030;11.598;2023-06-19T10:09:16;27.90;65.30
16513;DHT22;8369;48.030;11.598;2023-06-19T10:11:52;27.90;66.00
16513;DHT22;8369;48.030;11.598;2023-06-19T10:14:22;27.90;66.60
16513;DHT22;8369;48.030;11.598;2023-06-19T10:16:51;27.90;66.80
16513;DHT22;8369;48.030;11.598;2023-06-19T10:19:20;28.00;65.60
16513;DHT22;8369;48.030;11.598;2023-06-19T10:21:53;28.10;65.70
16513;DHT22;8369;48.030;11.598;2023-06-19T10:24:26;28.20;65.70
16513;DHT22;8369;48.030;11.598;2023-06-19T10:26:57;28.20;65.00
16513;DHT22;8369;48.030;11.598;2023-06-19T10:29:24;28.30;64.80
16513;DHT22;8369;48.030;11.598;2023-06-19T10:31:55;28.30;63.00
16513;DHT22;8369;48.030;11.598;2023-06-19T10:34:22;28.30;63.60
16513;DHT22;8369;48.030;11.598;2023-06-19T10:36:59;28.10;64.40
16513;DHT22;8369;48.030;11.598;2023-06-19T10:39:27;28.00;64.80
16513;DHT22;8369;48.030;11.598;2023-06-19T10:42:09;27.90;65.10
16513;DHT22;8369;48.030;11.598;2023-06-19T10:44:35;27.80;65.90
16513;DHT22;8369;48.030;11.598;2023-06-19T10:47:07;27.80;66.30
16513;DHT22;8369;48.030;11.598;2023-06-19T10:49:33;27.80;66.60
16513;DHT22;8369;48.030;11.598;2023-06-19T10:52:00;27.70;67.20
16513;DHT22;8369;48.030;11.598;2023-06-19T10:54:31;27.80;66.60
16513;DHT22;8369;48.030;11.598;2023-06-19T10:56:57;27.70;66.50
16513;DHT22;8369;48.030;11.598;2023-06-19T10:59:29;27.60;67.10
16513;DHT22;8369;48.030;11.598;2023-06-19T11:01:57;27.50;67.70
16513;DHT22;8369;48.030;11.598;2023-06-19T11:04:24;27.60;67.70
16513;DHT22;8369;48.030;11.598;2023-06-19T11:06:51;27.70;66.90
16513;DHT22;8369;48.030;11.598;2023-06-19T11:09:17;27.80;66.80
16513;DHT22;8369;48.030;11.598;2023-06-19T11:11:47;28.10;66.60
16513;DHT22;8369;48.030;11.598;2023-06-19T11:14:14;28.20;66.20
16513;DHT22;8369;48.030;11.598;2023-06-19T11:16:45;28.40;65.30
16513;DHT22;8369;48.030;11.598;2023-06-19T11:19:20;28.50;64.20
16513;DHT22;8369;48.030;11.598;2023-06-19T11:21:50;28.70;64.80
16513;DHT22;8369;48.030;11.598;2023-06-19T11:24:17;28.90;64.70
16513;DHT22;8369;48.030;11.598;2023-06-19T11:26:48;28.90;63.70
16513;DHT22;8369;48.030;11.598;2023-06-19T11:29:24;28.90;63.70
16513;DHT22;8369;48.030;11.598;2023-06-19T11:31:51;28.90;63.40
16513;DHT22;8369;48.030;11.598;2023-06-19T11:34:19;28.80;64.00
16513;DHT22;8369;48.030;11.598;2023-06-19T11:36:47;28.60;64.40
16513;DHT22;8369;48.030;11.598;2023-06-19T11:39:15;28.60;64.40
16513;DHT22;8369;48.030;11.598;2023-06-19T11:41:43;28.40;64.80
16513;DHT22;8369;48.030;11.598;2023-06-19T11:44:09;28.40;65.10
16513;DHT22;8369;48.030;11.598;2023-06-19T11:46:38;28.30;65.30
16513;DHT22;8369;48.030;11.598;2023-06-19T11:49:16;28.30;65.70
16513;DHT22;8369;48.030;11.598;2023-06-19T11:51:45;28.40;65.60
16513;DHT22;8369;48.030;11.598;2023-06-19T11:54:14;28.50;65.30
16513;DHT22;8369;48.030;11.598;2023-06-19T11:56:43;28.70;64.80
16513;DHT22;8369;48.030;11.598;2023-06-19T11:59:09;28.90;64.70
16513;DHT22;8369;48.030;11.598;2023-06-19T12:01:36;29.00;63.60
16513;DHT22;8369;48.030;11.598;2023-06-19T12:04:05;29.20;63.40
16513;DHT22;8369;48.030;11.598;2023-06-19T12:06:31;29.30;63.10
16513;DHT22;8369;48.030;11.598;2023-06-19T12:08:57;29.20;62.50
16513;DHT22;8369;48.030;11.598;2023-06-19T12:11:23;29.10;62.80
16513;DHT22;8369;48.030;11.598;2023-06-19T12:13:50;29.00;63.10
16513;DHT22;8369;48.030;11.598;2023-06-19T12:16:19;29.00;62.50
16513;DHT22;8369;48.030;11.598;2023-06-19T12:18:45;28.90;63.10
16513;DHT22;8369;48.030;11.598;2023-06-19T12:21:11;28.70;63.10
16513;DHT22;8369;48.030;11.598;2023-06-19T12:23:38;28.50;63.10
16513;DHT22;8369;48.030;11.598;2023-06-19T12:26:04;28.50;63.30
16513;DHT22;8369;48.030;11.598;2023-06-19T12:28:33;28.50;64.20
16513;DHT22;8369;48.030;11.598;2023-06-19T12:30:59;28.60;63.70
16513;DHT22;8369;48.030;11.598;2023-06-19T12:33:31;28.80;63.30
16513;DHT22;8369;48.030;11.598;2023-06-19T12:35:59;28.90;63.00
16513;DHT22;8369;48.030;11.598;2023-06-19T12:38:27;29.10;62.40
16513;DHT22;8369;48.030;11.598;2023-06-19T12:40:54;29.20;62.10
16513;DHT22;8369;48.030;11.598;2023-06-19T12:43:20;29.30;61.80
16513;DHT22;8369;48.030;11.598;2023-06-19T12:45:49;29.40;61.20
16513;DHT22;8369;48.030;11.598;2023-06-19T12:48:26;29.40;61.30
16513;DHT22;8369;48.030;11.598;2023-06-19T12:50:53;29.30;61.50
16513;DHT22;8369;48.030;11.598;2023-06-19T12:53:19;29.30;61.30
16513;DHT22;8369;48.030;11.598;2023-06-19T12:55:45;29.30;61.80
16513;DHT22;8369;48.030;11.598;2023-06-19T12:58:11;29.30;61.50
16513;DHT22;8369;48.030;11.598;2023-06-19T13:00:40;29.30;61.30
16513;DHT22;8369;48.030;11.598;2023-06-19T13:03:06;29.40;61.20
16513;DHT22;8369;48.030;11.598;2023-06-19T13:05:34;29.40;60.90
16513;DHT22;8369;48.030;11.598;2023-06-19T13:08:00;29.40;60.70
16513;DHT22;8369;48.030;11.598;2023-06-19T13:10:26;29.50;61.00
16513;DHT22;8369;48.030;11.598;2023-06-19T13:12:51;29.50;60.10
16513;DHT22;8369;48.030;11.598;2023-06-19T13:15:18;29.60;60.10
16513;DHT22;8369;48.030;11.598;2023-06-19T13:17:47;29.70;60.10
16513;DHT22;8369;48.030;11.598;2023-06-19T13:20:13;29.70;59.80
16513;DHT22;8369;48.030;11.598;2023-06-19T13:22:53;29.80;59.50
16513;DHT22;8369;48.030;11.598;2023-06-19T13:25:19;29.80;59.50
16513;DHT22;8369;48.030;11.598;2023-06-19T13:27:46;29.80;59.50
16513;DHT22;8369;48.030;11.598;2023-06-19T13:30:14;29.90;59.80
16513;DHT22;8369;48.030;11.598;2023-06-19T13:32:43;29.90;59.20
16513;DHT22;8369;48.030;11.598;2023-06-19T13:35:11;29.80;58.90
16513;DHT22;8369;48.030;11.598;2023-06-19T13:37:37;29.90;59.40
16513;DHT22;8369;48.030;11.598;2023-06-19T13:40:09;30.00;59.20
16513;DHT22;8369;48.030;11.598;2023-06-19T13:42:35;30.00;59.80
16513;DHT22;8369;48.030;11.598;2023-06-19T13:45:01;29.90;58.80
16513;DHT22;8369;48.030;11.598;2023-06-19T13:47:27;29.90;58.80
16513;DHT22;8369;48.030;11.598;2023-06-19T13:49:54;29.80;58.70
16513;DHT22;8369;48.030;11.598;2023-06-19T13:52:20;29.80;59.10
16513;DHT22;8369;48.030;11.598;2023-06-19T13:54:47;29.80;59.10
16513;DHT22;8369;48.030;11.598;2023-06-19T13:57:13;29.90;58.80
16513;DHT22;8369;48.030;11.598;2023-06-19T13:59:40;30.00;59.20
16513;DHT22;8369;48.030;11.598;2023-06-19T14:02:08;30.00;59.40
16513;DHT22;8369;48.030;11.598;2023-06-19T14:04:42;30.10;59.10
16513;DHT22;8369;48.030;11.598;2023-06-19T14:07:11;30.20;59.10
16513;DHT22;8369;48.030;11.598;2023-06-19T14:09:37;30.30;57.70
16513;DHT22;8369;48.030;11.598;2023-06-19T14:12:04;30.20;58.10
16513;DHT22;8369;48.030;11.598;2023-06-19T14:14:30;30.10;57.50
16513;DHT22;8369;48.030;11.598;2023-06-19T14:16:56;30.20;58.10
16513;DHT22;8369;48.030;11.598;2023-06-19T14:19:24;30.20;58.40
16513;DHT22;8369;48.030;11.598;2023-06-19T14:21:50;30.30;58.20
16513;DHT22;8369;48.030;11.598;2023-06-19T14:24:16;30.40;58.20
16513;DHT22;8369;48.030;11.598;2023-06-19T14:26:45;30.40;57.70
16513;DHT22;8369;48.030;11.598;2023-06-19T14:29:11;30.40;57.90
16513;DHT22;8369;48.030;11.598;2023-06-19T14:31:40;30.40;57.90
16513;DHT22;8369;48.030;11.598;2023-06-19T14:34:22;30.40;57.40
16513;DHT22;8369;48.030;11.598;2023-06-19T14:36:48;30.40;57.20
16513;DHT22;8369;48.030;11.598;2023-06-19T14:39:13;30.50;57.70
16513;DHT22;8369;48.030;11.598;2023-06-19T14:41:39;30.50;57.80
16513;DHT22;8369;48.030;11.598;2023-06-19T14:44:05;30.50;57.80
16513;DHT22;8369;48.030;11.598;2023-06-19T14:46:34;30.50;57.50
16513;DHT22;8369;48.030;11.598;2023-06-19T14:49:06;30.40;57.10
16513;DHT22;8369;48.030;11.598;2023-06-19T14:51:32;30.40;57.10
16513;DHT22;8369;48.030;11.598;2023-06-19T14:53:58;30.30;57.50
16513;DHT22;8369;48.030;11.598;2023-06-19T14:56:24;30.30;57.70
16513;DHT22;8369;48.030;11.598;2023-06-19T14:58:51;30.30;57.90
16513;DHT22;8369;48.030;11.598;2023-06-19T15:01:19;30.30;57.50
16513;DHT22;8369;48.030;11.598;2023-06-19T15:03:45;30.30;57.40
16513;DHT22;8369;48.030;11.598;2023-06-19T15:06:11;30.30;57.50
16513;DHT22;8369;48.030;11.598;2023-06-19T15:08:37;30.40;57.50
16513;DHT22;8369;48.030;11.598;2023-06-19T15:11:07;30.40;57.20
16513;DHT22;8369;48.030;11.598;2023-06-19T15:13:34;30.40;57.50
16513;DHT22;8369;48.030;11.598;2023-06-19T15:16:00;30.30;56.50
16513;DHT22;8369;48.030;11.598;2023-06-19T15:18:26;30.20;56.80
16513;DHT22;8369;48.030;11.598;2023-06-19T15:20:53;30.30;57.20
16513;DHT22;8369;48.030;11.598;2023-06-19T15:23:18;30.30;57.40
16513;DHT22;8369;48.030;11.598;2023-06-19T15:25:44;30.20;57.50
16513;DHT22;8369;48.030;11.598;2023-06-19T15:28:13;30.20;57.50
16513;DHT22;8369;48.030;11.598;2023-06-19T15:30:39;30.10;57.90
16513;DHT22;8369;48.030;11.598;2023-06-19T15:33:05;30.00;57.80
16513;DHT22;8369;48.030;11.598;2023-06-19T15:35:31;29.80;57.90